sensor_id;sensor_type;location;lat;lon;timestamp;pressure;altitude;pressure_sealevel;temperature;humidity
20009;BME280;10165;42.662;23.260;2023-03-04T00:02:02;94113.81;;;8.38;74.15
20009;BME280;10165;42.662;23.260;2023-03-04T00:04:30;94108.00;;;8.81;73.29
20009;BME280;10165;42.662;23.260;2023-03-04T00:06:56;94115.84;;;8.90;72.04
20009;BME280;10165;42.662;23.260;2023-03-04T00:09:23;94113.72;;;8.59;73.62
20009;BME280;10165;42.662;23.260;2023-03-04T00:11:50;94108.94;;;8.07;76.03
20009;BME280;10165;42.662;23.260;2023-03-04T00:14:16;94111.50;;;8.49;74.63
20009;BME280;10165;42.662;23.260;2023-03-04T00:16:43;94108.19;;;8.76;73.09
20009;BME280;10165;42.662;23.260;2023-03-04T00:19:10;94105.50;;;8.52;72.77
20009;BME280;10165;42.662;23.260;2023-03-04T00:21:36;94106.50;;;8.35;74.41
20009;BME280;10165;42.662;23.260;2023-03-04T00:24:03;94105.75;;;8.83;73.09
20009;BME280;10165;42.662;23.260;2023-03-04T00:26:30;94102.53;;;8.90;72.24
20009;BME280;10165;42.662;23.260;2023-03-04T00:28:56;94094.75;;;8.97;72.09
20009;BME280;10165;42.662;23.260;2023-03-04T00:31:23;94091.69;;;8.26;73.83
20009;BME280;10165;42.662;23.260;2023-03-04T00:33:50;94100.59;;;8.09;75.98
20009;BME280;10165;42.662;23.260;2023-03-04T00:36:16;94097.41;;;8.60;74.20
20009;BME280;10165;42.662;23.260;2023-03-04T00:38:43;94100.09;;;8.85;72.63
20009;BME280;10165;42.662;23.260;2023-03-04T00:41:10;94098.31;;;9.13;71.75
20009;BME280;10165;42.662;23.260;2023-03-04T00:43:36;94096.78;;;9.00;71.70
20009;BME280;10165;42.662;23.260;2023-03-04T00:46:03;94099.34;;;8.96;71.51
20009;BME280;10165;42.662;23.260;2023-03-04T00:48:30;94092.97;;;9.13;71.26
20009;BME280;10165;42.662;23.260;2023-03-04T00:50:56;94096.88;;;9.03;70.96
20009;BME280;10165;42.662;23.260;2023-03-04T00:53:23;94091.56;;;8.91;71.46
20009;BME280;10165;42.662;23.260;2023-03-04T00:55:50;94099.97;;;8.93;71.52
20009;BME280;10165;42.662;23.260;2023-03-04T00:58:16;94092.97;;;9.01;71.06
20009;BME280;10165;42.662;23.260;2023-03-04T01:00:43;94093.31;;;8.99;70.95
20009;BME280;10165;42.662;23.260;2023-03-04T01:03:10;94088.44;;;9.01;70.91
20009;BME280;10165;42.662;23.260;2023-03-04T01:05:36;94092.75;;;9.06;71.07
20009;BME280;10165;42.662;23.260;2023-03-04T01:08:03;94088.47;;;8.77;71.48
20009;BME280;10165;42.662;23.260;2023-03-04T01:10:30;94095.56;;;8.73;71.27
20009;BME280;10165;42.662;23.260;2023-03-04T01:12:57;94084.66;;;8.90;71.34
20009;BME280;10165;42.662;23.260;2023-03-04T01:15:24;94088.31;;;8.98;71.27
20009;BME280;10165;42.662;23.260;2023-03-04T01:17:50;94092.63;;;9.27;70.55
20009;BME280;10165;42.662;23.260;2023-03-04T01:20:18;94086.22;;;9.16;70.23
20009;BME280;10165;42.662;23.260;2023-03-04T01:22:44;94082.22;;;9.09;70.42
20009;BME280;10165;42.662;23.260;2023-03-04T01:25:11;94074.88;;;9.06;70.59
20009;BME280;10165;42.662;23.260;2023-03-04T01:27:37;94082.47;;;8.92;70.93
20009;BME280;10165;42.662;23.260;2023-03-04T01:30:05;94078.13;;;9.12;70.27
20009;BME280;10165;42.662;23.260;2023-03-04T01:32:32;94077.44;;;9.03;70.14
20009;BME280;10165;42.662;23.260;2023-03-04T01:34:59;94075.44;;;8.39;71.32
20009;BME280;10165;42.662;23.260;2023-03-04T01:37:25;94072.88;;;8.31;71.64
20009;BME280;10165;42.662;23.260;2023-03-04T01:39:52;94069.47;;;8.54;71.21
20009;BME280;10165;42.662;23.260;2023-03-04T01:42:21;94065.56;;;8.52;71.31
20009;BME280;10165;42.662;23.260;2023-03-04T01:44:48;94065.00;;;8.34;71.82
20009;BME280;10165;42.662;23.260;2023-03-04T01:47:17;94072.25;;;8.58;71.29
20009;BME280;10165;42.662;23.260;2023-03-04T01:49:47;94054.03;;;8.60;71.16
20009;BME280;10165;42.662;23.260;2023-03-04T01:52:16;94056.59;;;8.93;70.36
20009;BME280;10165;42.662;23.260;2023-03-04T01:54:43;94056.47;;;8.89;70.13
20009;BME280;10165;42.662;23.260;2023-03-04T01:57:21;94055.47;;;8.82;69.51
20009;BME280;10165;42.662;23.260;2023-03-04T02:00:14;94054.41;;;8.58;70.42
20009;BME280;10165;42.662;23.260;2023-03-04T02:02:43;94062.13;;;8.51;70.60
20009;BME280;10165;42.662;23.260;2023-03-04T02:05:09;94058.69;;;8.63;70.39
20009;BME280;10165;42.662;23.260;2023-03-04T02:07:37;94065.13;;;8.50;71.26
20009;BME280;10165;42.662;23.260;2023-03-04T02:10:04;94058.38;;;8.64;70.76
20009;BME280;10165;42.662;23.260;2023-03-04T02:12:31;94052.28;;;8.07;72.50
20009;BME280;10165;42.662;23.260;2023-03-04T02:14:58;94050.28;;;8.61;71.75
20009;BME280;10165;42.662;23.260;2023-03-04T02:17:26;94044.41;;;8.68;71.43
20009;BME280;10165;42.662;23.260;2023-03-04T02:22:25;94049.63;;;8.64;71.17
20009;BME280;10165;42.662;23.260;2023-03-04T02:24:56;94042.63;;;8.35;71.67
20009;BME280;10165;42.662;23.260;2023-03-04T02:27:26;94044.06;;;8.57;71.71
20009;BME280;10165;42.662;23.260;2023-03-04T02:29:52;94044.28;;;8.64;71.38
20009;BME280;10165;42.662;23.260;2023-03-04T02:32:19;94038.28;;;8.67;71.41
20009;BME280;10165;42.662;23.260;2023-03-04T02:34:48;94035.41;;;8.96;70.65
20009;BME280;10165;42.662;23.260;2023-03-04T02:37:16;94041.63;;;8.76;70.20
20009;BME280;10165;42.662;23.260;2023-03-04T02:39:45;94041.63;;;9.00;69.98
20009;BME280;10165;42.662;23.260;2023-03-04T02:42:13;94036.19;;;8.85;69.79
20009;BME280;10165;42.662;23.260;2023-03-04T02:44:43;94028.63;;;8.75;69.99
20009;BME280;10165;42.662;23.260;2023-03-04T02:47:13;94023.97;;;8.96;70.00
20009;BME280;10165;42.662;23.260;2023-03-04T02:49:40;94034.94;;;8.94;69.60
20009;BME280;10165;42.662;23.260;2023-03-04T02:52:15;94027.72;;;8.95;69.40
20009;BME280;10165;42.662;23.260;2023-03-04T02:54:43;94031.06;;;9.04;68.75
20009;BME280;10165;42.662;23.260;2023-03-04T02:57:11;94030.03;;;9.08;68.28
20009;BME280;10165;42.662;23.260;2023-03-04T02:59:39;94034.38;;;9.01;68.38
20009;BME280;10165;42.662;23.260;2023-03-04T03:02:06;94037.41;;;8.87;68.46
20009;BME280;10165;42.662;23.260;2023-03-04T03:04:35;94038.59;;;8.90;68.21
20009;BME280;10165;42.662;23.260;2023-03-04T03:07:03;94033.19;;;8.86;68.58
20009;BME280;10165;42.662;23.260;2023-03-04T03:09:29;94040.06;;;8.99;68.26
20009;BME280;10165;42.662;23.260;2023-03-04T03:11:56;94038.94;;;9.00;67.92
20009;BME280;10165;42.662;23.260;2023-03-04T03:14:23;94032.97;;;8.67;68.52
20009;BME280;10165;42.662;23.260;2023-03-04T03:16:50;94030.97;;;8.52;69.11
20009;BME280;10165;42.662;23.260;2023-03-04T03:19:16;94035.13;;;8.16;70.59
20009;BME280;10165;42.662;23.260;2023-03-04T03:21:43;94032.97;;;8.43;70.15
20009;BME280;10165;42.662;23.260;2023-03-04T03:24:09;94030.31;;;8.67;69.06
20009;BME280;10165;42.662;23.260;2023-03-04T03:26:36;94032.66;;;8.69;68.72
20009;BME280;10165;42.662;23.260;2023-03-04T03:29:05;94022.22;;;8.63;68.60
20009;BME280;10165;42.662;23.260;2023-03-04T03:31:31;94033.97;;;8.62;68.29
20009;BME280;10165;42.662;23.260;2023-03-04T03:33:58;94032.19;;;8.67;68.34
20009;BME280;10165;42.662;23.260;2023-03-04T03:36:25;94031.75;;;8.52;68.58
20009;BME280;10165;42.662;23.260;2023-03-04T03:38:52;94028.56;;;8.14;69.52
20009;BME280;10165;42.662;23.260;2023-03-04T03:41:18;94024.09;;;7.94;70.00
20009;BME280;10165;42.662;23.260;2023-03-04T03:43:45;94023.88;;;7.54;70.63
20009;BME280;10165;42.662;23.260;2023-03-04T03:46:11;94026.56;;;7.33;72.05
20009;BME280;10165;42.662;23.260;2023-03-04T03:48:38;94022.28;;;7.74;71.03
20009;BME280;10165;42.662;23.260;2023-03-04T03:51:05;94024.97;;;7.86;70.04
20009;BME280;10165;42.662;23.260;2023-03-04T03:53:31;94020.41;;;7.86;69.82
20009;BME280;10165;42.662;23.260;2023-03-04T03:55:58;94013.06;;;8.04;69.13
20009;BME280;10165;42.662;23.260;2023-03-04T03:58:25;94020.81;;;8.21;68.88
20009;BME280;10165;42.662;23.260;2023-03-04T04:00:52;94017.13;;;8.01;67.49
20009;BME280;10165;42.662;23.260;2023-03-04T04:03:21;94018.91;;;7.97;67.98
20009;BME280;10165;42.662;23.260;2023-03-04T04:05:48;94014.66;;;7.84;68.92
20009;BME280;10165;42.662;23.260;2023-03-04T04:08:16;94009.38;;;7.96;69.04
20009;BME280;10165;42.662;23.260;2023-03-04T04:10:43;94006.69;;;7.84;68.92
20009;BME280;10165;42.662;23.260;2023-03-04T04:13:09;94002.38;;;7.92;68.53
20009;BME280;10165;42.662;23.260;2023-03-04T04:15:36;94005.50;;;8.06;68.08
20009;BME280;10165;42.662;23.260;2023-03-04T04:18:05;94011.19;;;8.04;67.91
20009;BME280;10165;42.662;23.260;2023-03-04T04:20:32;94003.75;;;8.10;67.82
20009;BME280;10165;42.662;23.260;2023-03-04T04:22:59;94005.19;;;8.07;67.71
20009;BME280;10165;42.662;23.260;2023-03-04T04:25:27;94000.63;;;7.96;67.96
20009;BME280;10165;42.662;23.260;2023-03-04T04:27:54;94004.72;;;7.93;67.83
20009;BME280;10165;42.662;23.260;2023-03-04T04:30:21;94012.81;;;7.97;67.17
20009;BME280;10165;42.662;23.260;2023-03-04T04:32:47;94008.41;;;8.25;66.49
20009;BME280;10165;42.662;23.260;2023-03-04T04:35:14;94019.47;;;8.03;66.85
20009;BME280;10165;42.662;23.260;2023-03-04T04:37:41;94008.03;;;7.90;67.09
20009;BME280;10165;42.662;23.260;2023-03-04T04:40:08;94003.28;;;7.96;66.85
20009;BME280;10165;42.662;23.260;2023-03-04T04:42:35;94011.81;;;7.89;67.16
20009;BME280;10165;42.662;23.260;2023-03-04T04:45:02;94009.16;;;8.01;66.25
20009;BME280;10165;42.662;23.260;2023-03-04T04:47:29;94009.75;;;8.19;65.75
20009;BME280;10165;42.662;23.260;2023-03-04T04:49:56;94009.78;;;7.86;65.94
20009;BME280;10165;42.662;23.260;2023-03-04T04:52:22;94004.72;;;7.93;66.14
20009;BME280;10165;42.662;23.260;2023-03-04T04:54:49;94016.00;;;7.90;65.78
20009;BME280;10165;42.662;23.260;2023-03-04T04:57:16;94014.13;;;7.91;65.56
20009;BME280;10165;42.662;23.260;2023-03-04T04:59:42;94015.09;;;7.86;65.69
20009;BME280;10165;42.662;23.260;2023-03-04T05:02:09;94029.75;;;7.92;65.28
20009;BME280;10165;42.662;23.260;2023-03-04T05:04:36;94022.53;;;7.81;65.61
20009;BME280;10165;42.662;23.260;2023-03-04T05:07:02;94020.41;;;7.86;65.25
20009;BME280;10165;42.662;23.260;2023-03-04T05:09:29;94032.84;;;7.94;65.07
20009;BME280;10165;42.662;23.260;2023-03-04T05:11:55;94036.63;;;7.93;65.27
20009;BME280;10165;42.662;23.260;2023-03-04T05:14:22;94043.84;;;7.93;65.27
20009;BME280;10165;42.662;23.260;2023-03-04T05:16:49;94038.25;;;7.53;66.15
20009;BME280;10165;42.662;23.260;2023-03-04T05:19:19;94037.53;;;7.32;66.58
20009;BME280;10165;42.662;23.260;2023-03-04T05:21:46;94044.00;;;7.22;67.73
20009;BME280;10165;42.662;23.260;2023-03-04T05:24:13;94048.16;;;7.32;67.82
20009;BME280;10165;42.662;23.260;2023-03-04T05:26:39;94049.81;;;7.57;67.34
20009;BME280;10165;42.662;23.260;2023-03-04T05:29:06;94053.78;;;7.63;67.58
20009;BME280;10165;42.662;23.260;2023-03-04T05:31:33;94043.44;;;7.70;67.73
20009;BME280;10165;42.662;23.260;2023-03-04T05:33:59;94045.78;;;7.84;67.24
20009;BME280;10165;42.662;23.260;2023-03-04T05:36:26;94045.38;;;7.94;66.91
20009;BME280;10165;42.662;23.260;2023-03-04T05:38:53;94050.03;;;7.64;67.68
20009;BME280;10165;42.662;23.260;2023-03-04T05:41:19;94046.84;;;7.38;68.46
20009;BME280;10165;42.662;23.260;2023-03-04T05:43:48;94046.06;;;7.37;69.21
20009;BME280;10165;42.662;23.260;2023-03-04T05:46:17;94054.47;;;7.60;68.99
20009;BME280;10165;42.662;23.260;2023-03-04T05:48:44;94055.03;;;7.65;68.61
20009;BME280;10165;42.662;23.260;2023-03-04T05:51:11;94058.06;;;7.76;68.90
20009;BME280;10165;42.662;23.260;2023-03-04T05:53:39;94058.03;;;7.64;68.81
20009;BME280;10165;42.662;23.260;2023-03-04T05:56:12;94059.22;;;7.34;69.79
20009;BME280;10165;42.662;23.260;2023-03-04T05:58:39;94062.81;;;6.88;71.62
20009;BME280;10165;42.662;23.260;2023-03-04T06:01:06;94064.66;;;7.16;71.39
20009;BME280;10165;42.662;23.260;2023-03-04T06:03:33;94062.41;;;7.27;71.47
20009;BME280;10165;42.662;23.260;2023-03-04T06:06:00;94070.81;;;7.50;71.47
20009;BME280;10165;42.662;23.260;2023-03-04T06:08:27;94063.69;;;7.62;71.10
20009;BME280;10165;42.662;23.260;2023-03-04T06:10:55;94067.00;;;7.92;70.20
20009;BME280;10165;42.662;23.260;2023-03-04T06:13:22;94058.78;;;7.97;70.09
20009;BME280;10165;42.662;23.260;2023-03-04T06:15:56;94058.56;;;7.90;70.29
20009;BME280;10165;42.662;23.260;2023-03-04T06:18:24;94070.03;;;7.82;70.62
20009;BME280;10165;42.662;23.260;2023-03-04T06:21:00;94074.75;;;7.97;70.25
20009;BME280;10165;42.662;23.260;2023-03-04T06:23:29;94078.47;;;8.17;70.25
20009;BME280;10165;42.662;23.260;2023-03-04T06:25:58;94069.94;;;8.11;70.08
20009;BME280;10165;42.662;23.260;2023-03-04T06:28:25;94077.09;;;7.99;70.21
20009;BME280;10165;42.662;23.260;2023-03-04T06:30:54;94072.69;;;7.82;70.53
20009;BME280;10165;42.662;23.260;2023-03-04T06:33:21;94069.94;;;8.11;70.66
20009;BME280;10165;42.662;23.260;2023-03-04T06:35:55;94078.19;;;8.31;69.57
20009;BME280;10165;42.662;23.260;2023-03-04T06:38:24;94079.66;;;8.40;69.34
20009;BME280;10165;42.662;23.260;2023-03-04T06:40:51;94074.66;;;8.39;69.19
20009;BME280;10165;42.662;23.260;2023-03-04T06:43:21;94086.78;;;8.15;69.73
20009;BME280;10165;42.662;23.260;2023-03-04T06:45:48;94085.94;;;8.36;69.21
20009;BME280;10165;42.662;23.260;2023-03-04T06:48:14;94089.09;;;8.50;68.57
20009;BME280;10165;42.662;23.260;2023-03-04T06:50:41;94095.59;;;8.40;68.86
20009;BME280;10165;42.662;23.260;2023-03-04T06:53:08;94091.28;;;8.36;68.70
20009;BME280;10165;42.662;23.260;2023-03-04T06:55:34;94091.56;;;8.22;69.08
20009;BME280;10165;42.662;23.260;2023-03-04T06:58:01;94092.53;;;8.50;69.11
20009;BME280;10165;42.662;23.260;2023-03-04T07:00:28;94095.69;;;8.32;69.12
20009;BME280;10165;42.662;23.260;2023-03-04T07:02:54;94090.78;;;8.22;68.91
20009;BME280;10165;42.662;23.260;2023-03-04T07:05:21;94090.63;;;8.06;69.26
20009;BME280;10165;42.662;23.260;2023-03-04T07:07:48;94100.88;;;8.16;69.45
20009;BME280;10165;42.662;23.260;2023-03-04T07:10:16;94089.22;;;8.21;69.68
20009;BME280;10165;42.662;23.260;2023-03-04T07:12:43;94092.66;;;8.54;68.67
20009;BME280;10165;42.662;23.260;2023-03-04T07:15:10;94094.31;;;8.58;67.78
20009;BME280;10165;42.662;23.260;2023-03-04T07:17:37;94092.66;;;8.54;68.34
20009;BME280;10165;42.662;23.260;2023-03-04T07:20:04;94099.97;;;8.93;67.63
20009;BME280;10165;42.662;23.260;2023-03-04T07:22:30;94096.97;;;8.46;68.32
20009;BME280;10165;42.662;23.260;2023-03-04T07:24:57;94109.72;;;7.87;68.85
20009;BME280;10165;42.662;23.260;2023-03-04T07:27:23;94106.28;;;8.07;69.29
20009;BME280;10165;42.662;23.260;2023-03-04T07:29:50;94099.84;;;8.08;68.70
20009;BME280;10165;42.662;23.260;2023-03-04T07:32:17;94101.28;;;8.51;67.99
20009;BME280;10165;42.662;23.260;2023-03-04T07:34:44;94098.53;;;8.59;67.48
20009;BME280;10165;42.662;23.260;2023-03-04T07:37:10;94105.13;;;7.96;69.71
20009;BME280;10165;42.662;23.260;2023-03-04T07:39:37;94096.09;;;8.22;69.16
20009;BME280;10165;42.662;23.260;2023-03-04T07:42:04;94104.03;;;8.09;68.93
20009;BME280;10165;42.662;23.260;2023-03-04T07:44:31;94108.28;;;7.78;70.28
20009;BME280;10165;42.662;23.260;2023-03-04T07:46:58;94103.63;;;7.87;70.18
20009;BME280;10165;42.662;23.260;2023-03-04T07:49:24;94098.31;;;8.20;68.93
20009;BME280;10165;42.662;23.260;2023-03-04T07:51:51;94098.69;;;7.97;69.21
20009;BME280;10165;42.662;23.260;2023-03-04T07:54:18;94095.19;;;8.17;69.32
20009;BME280;10165;42.662;23.260;2023-03-04T07:56:45;94093.19;;;8.14;68.74
20009;BME280;10165;42.662;23.260;2023-03-04T07:59:12;94087.63;;;8.40;67.62
20009;BME280;10165;42.662;23.260;2023-03-04T08:01:38;94094.41;;;8.50;68.04
20009;BME280;10165;42.662;23.260;2023-03-04T08:04:06;94093.09;;;8.68;67.27
20009;BME280;10165;42.662;23.260;2023-03-04T08:06:33;94085.34;;;8.87;66.36
20009;BME280;10165;42.662;23.260;2023-03-04T08:09:05;94087.41;;;8.45;68.22
20009;BME280;10165;42.662;23.260;2023-03-04T08:11:33;94085.03;;;8.89;67.34
20009;BME280;10165;42.662;23.260;2023-03-04T08:14:00;94086.34;;;8.95;66.98
20009;BME280;10165;42.662;23.260;2023-03-04T08:16:27;94081.78;;;8.95;66.30
20009;BME280;10165;42.662;23.260;2023-03-04T08:18:56;94091.72;;;7.72;69.49
20009;BME280;10165;42.662;23.260;2023-03-04T08:21:25;94092.06;;;7.29;71.38
20009;BME280;10165;42.662;23.260;2023-03-04T08:23:52;94088.88;;;7.15;72.46
20009;BME280;10165;42.662;23.260;2023-03-04T08:26:29;94080.81;;;8.18;68.74
20009;BME280;10165;42.662;23.260;2023-03-04T08:28:57;94086.44;;;8.86;67.14
20009;BME280;10165;42.662;23.260;2023-03-04T08:31:23;94085.75;;;9.01;66.65
20009;BME280;10165;42.662;23.260;2023-03-04T08:33:50;94085.03;;;8.89;65.63
20009;BME280;10165;42.662;23.260;2023-03-04T08:36:19;94079.22;;;8.99;65.47
20009;BME280;10165;42.662;23.260;2023-03-04T08:38:46;94077.09;;;9.17;64.66
20009;BME280;10165;42.662;23.260;2023-03-04T08:41:13;94086.91;;;8.76;65.18
20009;BME280;10165;42.662;23.260;2023-03-04T08:43:40;94078.53;;;9.14;65.16
20009;BME280;10165;42.662;23.260;2023-03-04T08:46:07;94078.91;;;9.00;65.91
20009;BME280;10165;42.662;23.260;2023-03-04T08:48:35;94078.66;;;9.05;65.28
20009;BME280;10165;42.662;23.260;2023-03-04T08:51:09;94076.47;;;8.47;66.32
20009;BME280;10165;42.662;23.260;2023-03-04T08:53:37;94073.59;;;8.88;66.17
20009;BME280;10165;42.662;23.260;2023-03-04T08:56:05;94075.56;;;9.16;65.53
20009;BME280;10165;42.662;23.260;2023-03-04T08:58:32;94071.44;;;9.06;64.50
20009;BME280;10165;42.662;23.260;2023-03-04T09:01:00;94074.47;;;8.80;65.66
20009;BME280;10165;42.662;23.260;2023-03-04T09:03:28;94070.34;;;9.07;65.32
20009;BME280;10165;42.662;23.260;2023-03-04T09:05:55;94072.91;;;8.79;64.03
20009;BME280;10165;42.662;23.260;2023-03-04T09:08:22;94067.75;;;9.63;62.87
20009;BME280;10165;42.662;23.260;2023-03-04T09:10:52;94064.13;;;9.55;64.13
20009;BME280;10165;42.662;23.260;2023-03-04T09:13:21;94069.97;;;9.73;63.40
20009;BME280;10165;42.662;23.260;2023-03-04T09:15:51;94063.78;;;9.56;62.48
20009;BME280;10165;42.662;23.260;2023-03-04T09:18:20;94061.28;;;9.36;62.75
20009;BME280;10165;42.662;23.260;2023-03-04T09:20:49;94062.34;;;9.07;64.78
20009;BME280;10165;42.662;23.260;2023-03-04T09:23:16;94058.47;;;9.56;63.85
20009;BME280;10165;42.662;23.260;2023-03-04T09:25:45;94063.22;;;9.11;64.18
20009;BME280;10165;42.662;23.260;2023-03-04T09:28:13;94054.84;;;9.77;63.09
20009;BME280;10165;42.662;23.260;2023-03-04T09:30:40;94053.53;;;10.14;62.00
20009;BME280;10165;42.662;23.260;2023-03-04T09:33:06;94056.69;;;9.48;62.31
20009;BME280;10165;42.662;23.260;2023-03-04T09:35:33;94049.00;;;10.15;62.68
20009;BME280;10165;42.662;23.260;2023-03-04T09:38:00;94052.63;;;10.22;62.74
20009;BME280;10165;42.662;23.260;2023-03-04T09:40:31;94051.72;;;10.02;63.07
20009;BME280;10165;42.662;23.260;2023-03-04T09:43:01;94044.00;;;9.85;63.69
20009;BME280;10165;42.662;23.260;2023-03-04T09:45:44;94047.03;;;9.44;63.44
20009;BME280;10165;42.662;23.260;2023-03-04T09:48:15;94051.06;;;8.61;65.91
20009;BME280;10165;42.662;23.260;2023-03-04T09:51:10;94042.63;;;8.59;66.48
20009;BME280;10165;42.662;23.260;2023-03-04T09:56:44;94036.81;;;9.06;67.51
20009;BME280;10165;42.662;23.260;2023-03-04T10:01:48;94031.53;;;9.89;64.18
20009;BME280;10165;42.662;23.260;2023-03-04T10:06:43;94032.06;;;10.23;62.45
20009;BME280;10165;42.662;23.260;2023-03-04T10:09:16;94024.22;;;10.30;62.03
20009;BME280;10165;42.662;23.260;2023-03-04T10:11:54;94024.72;;;10.20;61.23
20009;BME280;10165;42.662;23.260;2023-03-04T10:17:21;94010.63;;;9.91;63.31
20009;BME280;10165;42.662;23.260;2023-03-04T10:20:18;94016.47;;;10.40;59.60
20009;BME280;10165;42.662;23.260;2023-03-04T10:22:48;94014.28;;;10.77;59.51
20009;BME280;10165;42.662;23.260;2023-03-04T10:25:16;94006.72;;;11.14;59.48
20009;BME280;10165;42.662;23.260;2023-03-04T10:27:58;94010.78;;;10.26;59.17
20009;BME280;10165;42.662;23.260;2023-03-04T10:30:56;94008.16;;;9.43;63.29
20009;BME280;10165;42.662;23.260;2023-03-04T10:33:27;93993.63;;;10.43;61.27
20009;BME280;10165;42.662;23.260;2023-03-04T10:38:44;93989.09;;;10.43;60.23
20009;BME280;10165;42.662;23.260;2023-03-04T10:41:15;93987.50;;;11.09;58.49
20009;BME280;10165;42.662;23.260;2023-03-04T10:43:42;93987.81;;;9.94;61.77
20009;BME280;10165;42.662;23.260;2023-03-04T10:46:12;93984.88;;;10.93;60.42
20009;BME280;10165;42.662;23.260;2023-03-04T10:48:41;93981.50;;;10.61;59.28
20009;BME280;10165;42.662;23.260;2023-03-04T10:51:28;93981.25;;;10.35;60.76
20009;BME280;10165;42.662;23.260;2023-03-04T10:54:01;93976.25;;;10.49;59.64
20009;BME280;10165;42.662;23.260;2023-03-04T10:59:42;93966.72;;;10.83;59.65
20009;BME280;10165;42.662;23.260;2023-03-04T11:04:41;93958.78;;;10.20;61.99
20009;BME280;10165;42.662;23.260;2023-03-04T11:07:09;93957.91;;;10.32;60.47
20009;BME280;10165;42.662;23.260;2023-03-04T11:09:36;93950.81;;;10.55;62.12
20009;BME280;10165;42.662;23.260;2023-03-04T11:12:14;93946.13;;;10.83;59.82
20009;BME280;10165;42.662;23.260;2023-03-04T11:14:45;93947.22;;;10.82;59.19
20009;BME280;10165;42.662;23.260;2023-03-04T11:17:24;93952.13;;;10.61;59.57
20009;BME280;10165;42.662;23.260;2023-03-04T11:20:12;93938.94;;;10.05;61.07
20009;BME280;10165;42.662;23.260;2023-03-04T11:22:41;93933.09;;;10.31;60.91
20009;BME280;10165;42.662;23.260;2023-03-04T11:25:29;93932.53;;;10.22;62.09
20009;BME280;10165;42.662;23.260;2023-03-04T11:28:02;93923.06;;;10.60;61.48
20009;BME280;10165;42.662;23.260;2023-03-04T11:36:20;93910.69;;;10.86;61.38
20009;BME280;10165;42.662;23.260;2023-03-04T11:38:49;93912.03;;;10.96;60.70
20009;BME280;10165;42.662;23.260;2023-03-04T11:41:27;93906.75;;;10.99;60.59
20009;BME280;10165;42.662;23.260;2023-03-04T11:44:00;93905.66;;;10.66;60.67
20009;BME280;10165;42.662;23.260;2023-03-04T11:46:43;93904.38;;;10.94;60.75
20009;BME280;10165;42.662;23.260;2023-03-04T11:49:42;93899.56;;;10.65;60.58
20009;BME280;10165;42.662;23.260;2023-03-04T11:55:46;93901.44;;;10.65;62.00
20009;BME280;10165;42.662;23.260;2023-03-04T12:01:14;93893.53;;;10.18;61.81
20009;BME280;10165;42.662;23.260;2023-03-04T12:04:00;93889.81;;;10.38;62.48
20009;BME280;10165;42.662;23.260;2023-03-04T12:15:21;93880.41;;;9.34;64.61
20009;BME280;10165;42.662;23.260;2023-03-04T12:31:38;93864.41;;;10.63;61.04
20009;BME280;10165;42.662;23.260;2023-03-04T12:42:00;93855.44;;;10.36;62.05
20009;BME280;10165;42.662;23.260;2023-03-04T12:44:33;93851.84;;;9.97;62.85
20009;BME280;10165;42.662;23.260;2023-03-04T12:52:17;93840.94;;;11.11;59.42
20009;BME280;10165;42.662;23.260;2023-03-04T12:55:01;93844.84;;;10.59;59.69
20009;BME280;10165;42.662;23.260;2023-03-04T12:57:29;93839.03;;;10.53;60.63
20009;BME280;10165;42.662;23.260;2023-03-04T13:09:03;93829.13;;;10.03;61.94
20009;BME280;10165;42.662;23.260;2023-03-04T13:11:42;93814.28;;;10.37;61.41
20009;BME280;10165;42.662;23.260;2023-03-04T13:16:51;93805.34;;;11.07;59.56
20009;BME280;10165;42.662;23.260;2023-03-04T13:19:57;93807.97;;;10.84;58.94
20009;BME280;10165;42.662;23.260;2023-03-04T13:22:54;93802.03;;;11.13;59.27
20009;BME280;10165;42.662;23.260;2023-03-04T13:25:29;93803.81;;;10.67;60.42
20009;BME280;10165;42.662;23.260;2023-03-04T13:28:31;93808.75;;;10.65;60.85
20009;BME280;10165;42.662;23.260;2023-03-04T13:31:20;93803.53;;;10.34;62.16
20009;BME280;10165;42.662;23.260;2023-03-04T13:33:55;93804.44;;;10.06;63.19
20009;BME280;10165;42.662;23.260;2023-03-04T13:39:03;93807.78;;;10.19;62.79
20009;BME280;10165;42.662;23.260;2023-03-04T13:41:53;93805.00;;;9.34;65.82
20009;BME280;10165;42.662;23.260;2023-03-04T13:47:26;93796.41;;;10.06;64.51
20009;BME280;10165;42.662;23.260;2023-03-04T13:52:48;93787.19;;;10.96;63.60
20009;BME280;10165;42.662;23.260;2023-03-04T13:57:56;93788.63;;;10.33;64.39
20009;BME280;10165;42.662;23.260;2023-03-04T14:00:23;93779.97;;;10.97;64.64
20009;BME280;10165;42.662;23.260;2023-03-04T14:02:50;93783.47;;;11.01;63.90
20009;BME280;10165;42.662;23.260;2023-03-04T14:05:17;93770.06;;;10.59;65.72
20009;BME280;10165;42.662;23.260;2023-03-04T14:07:44;93769.09;;;10.67;65.71
20009;BME280;10165;42.662;23.260;2023-03-04T14:12:45;93768.97;;;10.60;62.62
20009;BME280;10165;42.662;23.260;2023-03-04T14:17:43;93767.84;;;10.61;64.51
20009;BME280;10165;42.662;23.260;2023-03-04T14:20:24;93770.84;;;10.79;63.53
20009;BME280;10165;42.662;23.260;2023-03-04T14:22:51;93765.47;;;10.98;63.21
20009;BME280;10165;42.662;23.260;2023-03-04T14:27:47;93760.00;;;10.91;63.63
20009;BME280;10165;42.662;23.260;2023-03-04T14:30:25;93753.06;;;10.29;62.41
20009;BME280;10165;42.662;23.260;2023-03-04T14:33:31;93755.63;;;11.02;61.81
20009;BME280;10165;42.662;23.260;2023-03-04T14:35:59;93751.59;;;11.34;61.15
20009;BME280;10165;42.662;23.260;2023-03-04T14:41:14;93749.94;;;11.03;61.29
20009;BME280;10165;42.662;23.260;2023-03-04T14:44:04;93752.59;;;10.23;62.35
20009;BME280;10165;42.662;23.260;2023-03-04T14:46:39;93754.16;;;10.85;62.73
20009;BME280;10165;42.662;23.260;2023-03-04T14:49:11;93750.19;;;10.37;63.12
20009;BME280;10165;42.662;23.260;2023-03-04T14:51:42;93740.19;;;11.15;60.55
20009;BME280;10165;42.662;23.260;2023-03-04T14:57:01;93734.06;;;11.37;60.89